Notice: Undefined index: language in D:\xampp\htdocs\vam\index.php on line 25
Open Air Virtual

 METAR AND TAF INFORMATION
METAR FOR ESNN
ADDS - METARS form results

(1419 UTC 04 June 2020)
Data provider http://aviationweather.gov/metar/data/
 
METAR text: ESNN 041350Z 17012KT CAVOK 16/04 Q1006
Conditions at: ESNN (SUNDSVALL/HARNOS, SE) observed 1350 UTC 04 June 2020
Temperature: 16.0°C (61°F)
Dewpoint: 4.0°C (39°F) [RH = 45%]
Pressure (altimeter): 29.70 inches Hg (1006.0 mb)
Winds: from the S (170 degrees) at 14 MPH (12 knots; 6.2 m/s)
Visibility: 6 or more miles (10+ km)
Ceiling: ceiling and visibility are OK
Clouds: unknown
Weather: no significant weather observed at this time

METAR text: ESNN 041320Z 16013KT CAVOK 17/03 Q1006
Conditions at: ESNN (SUNDSVALL/HARNOS, SE) observed 1320 UTC 04 June 2020
Temperature: 17.0°C (63°F)
Dewpoint: 3.0°C (37°F) [RH = 39%]
Pressure (altimeter): 29.70 inches Hg (1006.0 mb)
Winds: from the SSE (160 degrees) at 15 MPH (13 knots; 6.7 m/s)
Visibility: 6 or more miles (10+ km)
Ceiling: ceiling and visibility are OK
Clouds: unknown
Weather: no significant weather observed at this time

Forecast for: ESNN (SUNDSVALL/HARNOS, SE)
Text: TAF ESNN 041130Z 0412/0415 15012KT CAVOK
Forecast period: 1200 to 1500 UTC 04 June 2020
Forecast type: FROM: standard forecast or significant change
Winds: from the SSE (150 degrees) at 14 MPH (12 knots; 6.2 m/s)
Visibility: 6 or more miles 10+ km)
Ceiling: unknown
Clouds: missing
Weather: NSW  (no significant weather)

 AIRPORT MAP

 RUNWAY INFORMATION
Runway 16 Runway length 6857 ft Runway width 148 ft
Runway elevation 16 ft Runway displaced threshold 492 ft Runway heading 160
Runway 34 Runway length 6857 ft Runway width 148 ft
Runway elevation 12 ft Runway displaced threshold 459 ft Runway heading 340

 AIRPORT FREQUENCIES
Type ATIS Name ATIS Frequency 127.4 MHZ
Type TWR Name TWR Frequency 129.55 MHZ

 AIRPORT NEAR NAVIGATION AIDS
Type VOR-DME Name Sundsvall Frequency 113100 KHZ



Powered by Virtual Airlines Manager [v2.6.2]